Augusta Springs, Virginia
Current Conditions -  °F | °C
As of 8:15 PM on Tuesday 27 Jan 2015 (Local Time) from KW13 Reporting Station
Scattered Clouds Scattered Clouds  
Wind Chill: 17°   Ceiling: Unl
Heat Index: 24°   Visibility: 10mi
Dew Point: 12°   Wind: 6mph
Humidity: 60%   Direction: 310°NW
Pressure: 29.91"   Gusts: NA
Location:  38.1°N, 79.32°W
Report Text: KW13 280115Z AUTO 31005KT 10SM SCT042 M04/M11 A2991 RMK AO1 T10431110
Loading
Personal Weather Stations






























Interactive Weather Map New forecast layout! Learn more

10-Day Weather Forecast

Advertisements
Track Severe Weather on mobile